Time;durP1;ratioP1;P1;durP2;ratioP2;P2;SDS_P1;SDS_P2;PMS_P1;PMS_P2;Temp;Humidity;BMP_temperature;BMP_pressure;BME280_temperature;BME280_humidity;BME280_pressure;Samples;Min_cycle;Max_cycle;Signal;HPM_P1;HPM_P2
2022/05/18 00:00:48;;;;;;;1.23;1.13;;;;;;;25.77;34.55;100848.38;4181346;28;20095;-66
2022/05/18 00:03:04;;;;;;;1.48;1.35;;;;;;;25.77;34.92;100851.19;4170925;28;20067;-67
2022/05/18 00:05:39;;;;;;;1.95;1.25;;;;;;;25.76;35.23;100850.34;4180025;28;20049;-67
2022/05/18 00:08:23;;;;;;;2.58;1.40;;;;;;;25.75;35.37;100867.44;4181227;28;20098;-67
2022/05/18 00:13:06;;;;;;;2.23;1.67;;;;;;;25.75;34.88;100868.28;4182111;28;20033;-68
2022/05/18 00:15:37;;;;;;;2.35;1.33;;;;;;;25.74;35.61;100874.19;4181055;28;20270;-68
2022/05/18 00:17:50;;;;;;;1.30;1.15;;;;;;;25.75;35.29;100876.72;4180852;28;20045;-67
2022/05/18 00:20:03;;;;;;;2.38;1.30;;;;;;;25.74;34.78;100875.03;4180987;28;20049;-68
2022/05/18 00:22:21;;;;;;;1.52;1.38;;;;;;;25.72;35.59;100882.94;4181955;28;20029;-67
2022/05/18 00:24:29;;;;;;;1.80;1.20;;;;;;;25.73;35.15;100884.59;4179753;28;20045;-67
2022/05/18 00:27:03;;;;;;;1.20;1.10;;;;;;;25.72;34.82;100882.09;4181104;28;20098;-67
2022/05/18 00:29:33;;;;;;;1.52;1.20;;;;;;;25.67;35.22;100879.41;4172951;28;20090;-67
2022/05/18 00:31:47;;;;;;;2.25;1.25;;;;;;;25.72;34.69;100893.31;4173089;28;20045;-67
2022/05/18 00:34:10;;;;;;;3.53;1.15;;;;;;;25.70;35.23;100895.59;4180969;28;20488;-67
2022/05/18 00:36:25;;;;;;;4.30;1.38;;;;;;;25.72;35.14;100899.75;4180600;28;20107;-68
2022/05/18 00:38:50;;;;;;;1.55;1.40;;;;;;;25.70;35.23;100896.41;4179960;28;20090;-68
2022/05/18 00:41:23;;;;;;;3.13;1.38;;;;;;;25.64;34.97;100892.06;4133177;28;20047;-68
2022/05/18 00:44:21;;;;;;;2.20;1.23;;;;;;;25.70;35.10;100906.78;4180921;28;20040;-66
2022/05/18 00:46:25;;;;;;;1.90;1.35;;;;;;;25.63;34.79;100896.03;4180489;28;20108;-67
2022/05/18 00:49:06;;;;;;;1.55;1.02;;;;;;;25.71;35.24;100914.91;4180681;28;20045;-67
2022/05/18 00:54:45;;;;;;;1.45;1.25;;;;;;;25.68;35.03;100926.75;4176092;28;20037;-68
2022/05/18 00:57:05;;;;;;;1.27;1.15;;;;;;;25.71;34.79;100933.69;4180528;28;20037;-68
2022/05/18 01:02:00;;;;;;;1.70;1.02;;;;;;;25.71;34.15;100948.53;4115039;28;20039;-67
2022/05/18 01:04:22;;;;;;;0.80;0.80;;;;;;;25.69;34.49;100950.00;4179046;28;20076;-67
2022/05/18 01:07:04;;;;;;;1.10;0.90;;;;;;;25.68;34.46;100954.75;4177773;28;20415;-67
2022/05/18 01:09:39;;;;;;;1.98;1.00;;;;;;;25.54;34.56;100934.34;4179232;28;20090;-67
2022/05/18 01:15:09;;;;;;;1.52;1.00;;;;;;;25.65;34.62;100960.97;4181220;28;20033;-66
2022/05/18 01:18:03;;;;;;;;;;;;;;;;;;;;;
2022/05/18 01:20:15;;;;;;;1.25;0.90;;;;;;;25.67;33.83;100986.75;4169495;28;20041;-66
2022/05/18 01:22:53;;;;;;;1.23;0.85;;;;;;;25.65;34.21;100989.00;4180549;28;20045;-67
2022/05/18 01:25:15;;;;;;;0.85;0.77;;;;;;;25.67;33.82;100991.53;4146632;28;20575;-67
2022/05/18 01:27:20;;;;;;;1.20;1.10;;;;;;;25.66;33.41;100992.63;4179204;28;20033;-67
2022/05/18 01:29:53;;;;;;;1.23;0.82;;;;;;;25.57;34.08;100992.56;4180369;28;20435;-67
2022/05/18 01:32:37;;;;;;;0.60;0.60;;;;;;;25.62;33.70;101005.63;4180531;28;20036;-67
2022/05/18 01:35:04;;;;;;;0.70;0.70;;;;;;;25.62;33.56;101014.88;4180036;28;20045;-67
2022/05/18 01:37:09;;;;;;;0.93;0.50;;;;;;;25.60;33.37;101012.38;4174290;28;20430;-67
2022/05/18 01:39:46;;;;;;;0.98;0.65;;;;;;;25.54;33.57;101010.00;4177053;28;20041;-67
2022/05/18 01:42:25;;;;;;;2.85;0.82;;;;;;;25.59;33.59;101023.91;4171721;28;20032;-68
2022/05/18 01:44:39;;;;;;;1.02;0.70;;;;;;;25.60;33.36;101031.16;4163671;28;20042;-67
2022/05/18 01:46:50;;;;;;;1.00;0.60;;;;;;;25.59;33.51;101029.50;4183466;28;20037;-67
2022/05/18 01:48:53;;;;;;;1.45;0.70;;;;;;;25.58;34.07;101039.06;4183349;28;20041;-66
2022/05/18 01:51:36;;;;;;;1.58;0.80;;;;;;;25.49;34.14;101030.53;4183397;28;20680;-66
2022/05/18 01:53:41;;;;;;;0.85;0.85;;;;;;;25.58;33.34;101047.47;4181169;28;20100;-68
2022/05/18 01:56:08;;;;;;;1.55;1.00;;;;;;;25.57;34.02;101054.22;4183601;28;20443;-68
2022/05/18 01:58:34;;;;;;;2.20;0.90;;;;;;;25.58;33.89;101045.47;4183495;28;20423;-68
2022/05/18 02:00:41;;;;;;;0.77;0.70;;;;;;;25.59;33.76;101051.91;4183001;28;20110;-66
2022/05/18 02:03:27;;;;;;;2.03;0.70;;;;;;;25.57;34.32;101055.03;4183259;28;20082;-67
2022/05/18 02:05:40;;;;;;;0.98;0.60;;;;;;;25.59;34.06;101066.75;4183359;28;20431;-66
2022/05/18 02:08:01;;;;;;;1.70;0.80;;;;;;;25.53;34.39;101053.16;4162766;28;20440;-67
2022/05/18 02:10:18;;;;;;;0.88;0.80;;;;;;;25.58;34.40;101067.91;4181036;28;20087;-67
2022/05/18 02:12:35;;;;;;;1.48;0.75;;;;;;;25.48;34.29;101061.66;4180173;28;20045;-67
2022/05/18 02:14:54;;;;;;;1.30;0.95;;;;;;;25.58;34.24;101079.13;4149368;28;20042;-67
2022/05/18 02:17:08;;;;;;;1.02;0.90;;;;;;;25.58;34.18;101089.50;4183054;28;20041;-67
2022/05/18 02:19:10;;;;;;;1.58;0.70;;;;;;;25.49;33.28;101069.75;4183108;28;20087;-67
2022/05/18 02:21:31;;;;;;;2.28;0.90;;;;;;;25.53;33.78;101089.59;4182891;28;20087;-67
2022/05/18 02:23:47;;;;;;;0.80;0.70;;;;;;;25.55;33.98;101090.09;4183282;28;20040;-67
2022/05/18 02:26:01;;;;;;;1.00;0.80;;;;;;;25.54;32.81;101094.06;4183397;28;20067;-67
2022/05/18 02:28:15;;;;;;;1.23;0.63;;;;;;;25.48;32.90;101084.91;4165535;28;20402;-66
2022/05/18 02:30:28;;;;;;;2.08;0.70;;;;;;;25.52;32.76;101099.13;4181450;28;20095;-67
2022/05/18 02:32:49;;;;;;;1.02;0.70;;;;;;;25.44;32.96;101102.66;4183826;28;20111;-67
2022/05/18 02:34:57;;;;;;;3.78;0.77;;;;;;;25.49;32.49;101119.38;4179611;28;20036;-67
2022/05/18 02:37:14;;;;;;;0.80;0.70;;;;;;;25.44;32.80;101128.69;4182730;28;20078;-68
2022/05/18 02:39:28;;;;;;;0.70;0.50;;;;;;;25.49;32.38;101130.56;4182808;28;20045;-67
2022/05/18 02:41:32;;;;;;;1.77;0.75;;;;;;;25.49;31.85;101145.41;4166337;28;20042;-68
2022/05/18 02:43:43;;;;;;;;;;;;;;;25.47;32.27;101144.03;4183046;28;20091;-67
2022/05/18 02:46:19;;;;;;;1.55;0.70;;;;;;;25.51;31.92;101153.50;4182774;28;19917;-66
2022/05/18 02:48:41;;;;;;;1.90;0.75;;;;;;;25.50;31.99;101154.66;4177340;28;20041;-66
2022/05/18 02:50:47;;;;;;;1.48;0.63;;;;;;;25.49;31.27;101150.19;4182593;28;20107;-66
2022/05/18 02:53:03;;;;;;;0.75;0.50;;;;;;;25.46;31.65;101159.19;4180986;28;20033;-66
2022/05/18 02:57:31;;;;;;;0.45;0.40;;;;;;;25.36;31.75;101168.59;4183717;28;20534;-67
2022/05/18 02:59:34;;;;;;;2.58;0.63;;;;;;;25.43;31.51;101171.88;4182428;28;20041;-67
2022/05/18 03:01:49;;;;;;;0.88;0.88;;;;;;;25.41;31.59;101187.28;4180622;28;20067;-66
2022/05/18 03:04:06;;;;;;;0.52;0.52;;;;;;;25.40;31.70;101188.44;4181031;28;20037;-66
2022/05/18 03:06:16;;;;;;;0.93;0.68;;;;;;;25.40;31.31;101192.06;4182163;28;20036;-66
2022/05/18 03:08:24;;;;;;;1.02;0.50;;;;;;;25.39;31.20;101198.00;4182271;28;20481;-66
2022/05/18 03:11:09;;;;;;;0.73;0.50;;;;;;;25.35;31.44;101204.19;4182384;28;20570;-68
2022/05/18 03:13:25;;;;;;;1.35;0.40;;;;;;;25.38;31.32;101201.91;4169909;28;20098;-67
2022/05/18 03:15:38;;;;;;;0.60;0.40;;;;;;;25.32;31.79;101202.00;4182276;28;20036;-68
2022/05/18 03:18:22;;;;;;;0.73;0.43;;;;;;;25.34;32.05;101210.94;4181524;28;20033;-67
2022/05/18 03:25:33;;;;;;;0.90;0.45;;;;;;;25.34;31.81;101224.13;4183082;28;20082;-67
2022/05/18 03:27:44;;;;;;;1.45;0.55;;;;;;;25.31;31.65;101214.34;4177793;28;20049;-67
2022/05/18 03:29:54;;;;;;;2.13;0.77;;;;;;;25.33;31.72;101230.84;4182108;28;20137;-68
2022/05/18 03:32:21;;;;;;;1.48;0.70;;;;;;;25.32;31.69;101238.41;4182745;28;20037;-67
2022/05/18 03:34:39;;;;;;;1.52;0.52;;;;;;;25.24;31.95;101225.09;4182300;28;20041;-67
2022/05/18 03:37:07;;;;;;;2.05;0.60;;;;;;;25.32;31.51;101255.22;4167599;28;20444;-67
2022/05/18 03:39:17;;;;;;;0.98;0.40;;;;;;;25.30;31.64;101246.28;4177676;28;20037;-67
2022/05/18 03:41:28;;;;;;;1.27;0.50;;;;;;;25.26;31.60;101245.22;4182081;28;20476;-66
2022/05/18 03:43:48;;;;;;;3.42;1.20;;;;;;;25.29;32.07;101243.78;4166185;28;20076;-67
2022/05/18 03:45:50;;;;;;;1.20;0.50;;;;;;;25.30;32.08;101251.91;4164398;28;20088;-68
2022/05/18 03:48:00;;;;;;;0.93;0.45;;;;;;;25.29;31.81;101254.97;4181612;28;20087;-67
2022/05/18 03:50:17;;;;;;;0.82;0.50;;;;;;;25.28;31.79;101262.56;4181827;28;20464;-67
2022/05/18 03:52:32;;;;;;;0.70;0.45;;;;;;;25.20;31.48;101254.84;4181801;28;20036;-66
2022/05/18 03:57:22;;;;;;;1.48;0.55;;;;;;;25.26;31.80;101273.25;4182207;28;20036;-67
2022/05/18 03:59:50;;;;;;;1.23;0.47;;;;;;;25.26;31.82;101272.41;4181661;28;20102;-68
2022/05/18 04:02:03;;;;;;;0.57;0.40;;;;;;;25.27;31.47;101279.69;4164199;28;20084;-67
2022/05/18 04:04:07;;;;;;;0.70;0.52;;;;;;;25.26;31.19;101290.06;4181123;28;20435;-67
2022/05/18 04:06:36;;;;;;;1.00;0.85;;;;;;;25.22;31.64;101272.19;4180829;28;20037;-66
2022/05/18 04:08:44;;;;;;;0.90;0.45;;;;;;;25.25;31.23;101288.38;4171112;28;20037;-67
2022/05/18 04:10:51;;;;;;;0.40;0.40;;;;;;;25.17;31.45;101269.47;4179552;28;20037;-67
2022/05/18 04:15:24;;;;;;;0.93;0.40;;;;;;;25.22;31.39;101283.38;4182304;28;20037;-66
2022/05/18 04:17:32;;;;;;;0.55;0.30;;;;;;;25.21;31.35;101298.53;4159686;28;20445;-66
2022/05/18 04:19:58;;;;;;;0.30;0.30;;;;;;;25.21;31.60;101300.50;4163963;28;20037;-66
2022/05/18 04:22:18;;;;;;;0.32;0.32;;;;;;;25.20;31.65;101302.47;4164171;28;20041;-67
2022/05/18 04:24:32;;;;;;;1.13;0.43;;;;;;;25.19;31.52;101306.38;4164515;28;20034;-67
2022/05/18 04:27:17;;;;;;;;;;;;;;;;;;;;;
2022/05/18 04:29:25;;;;;;;1.70;0.35;;;;;;;25.18;31.43;101299.13;4180381;28;20447;-65
2022/05/18 04:31:37;;;;;;;2.92;0.70;;;;;;;24.94;31.47;101261.91;4131183;28;20482;-66
2022/05/18 04:34:04;;;;;;;0.60;0.40;;;;;;;25.15;32.07;101310.09;4167540;28;20071;-68
2022/05/18 04:36:17;;;;;;;0.80;0.52;;;;;;;25.16;32.90;101312.59;4175117;28;20040;-67
2022/05/18 04:38:53;;;;;;;1.90;0.65;;;;;;;25.15;33.08;101316.50;4180431;28;20087;-67
2022/05/18 04:43:50;;;;;;;2.15;0.50;;;;;;;25.15;33.31;101308.13;4180702;28;20414;-66
2022/05/18 04:46:13;;;;;;;;;;;;;;;;;;;;;
2022/05/18 04:48:30;;;;;;;2.25;0.70;;;;;;;25.21;33.10;101309.72;4178378;28;20103;-66
2022/05/18 04:50:49;;;;;;;1.02;0.50;;;;;;;25.22;33.71;101311.38;4181556;28;20095;-68
2022/05/18 04:52:57;;;;;;;1.35;0.57;;;;;;;25.23;33.67;101312.22;4163228;28;20041;-67
2022/05/18 04:55:04;;;;;;;1.98;0.60;;;;;;;25.22;33.96;101305.78;4165351;28;20086;-68
2022/05/18 04:57:35;;;;;;;;;;;;;;;;;;;;;
2022/05/18 04:59:57;;;;;;;2.80;0.60;;;;;;;25.23;33.83;101307.44;4178245;28;20041;-67
2022/05/18 05:02:27;;;;;;;10.88;1.25;;;;;;;25.21;32.97;101304.13;4162739;28;20049;-67
2022/05/18 05:04:41;;;;;;;1.45;0.40;;;;;;;25.22;32.74;101308.59;4164322;28;20041;-67
2022/05/18 05:06:58;;;;;;;3.15;0.55;;;;;;;25.20;32.68;101308.06;4165163;28;20099;-67
2022/05/18 05:09:26;;;;;;;2.20;0.50;;;;;;;25.19;32.87;101305.56;4179542;28;20103;-67
2022/05/18 05:11:43;;;;;;;0.65;0.45;;;;;;;25.16;32.79;101301.41;4180882;28;20086;-67
2022/05/18 05:14:00;;;;;;;3.13;0.63;;;;;;;25.17;32.44;101308.66;4179922;28;20040;-67
2022/05/18 05:16:26;;;;;;;3.08;0.40;;;;;;;25.15;32.88;101299.72;4178273;28;20492;-67
2022/05/18 05:18:50;;;;;;;2.95;0.50;;;;;;;25.12;32.58;101300.34;4179915;28;20053;-67
2022/05/18 05:21:07;;;;;;;2.45;0.47;;;;;;;25.14;32.51;101302.81;4180751;28;20087;-66
2022/05/18 05:26:12;;;;;;;1.08;0.50;;;;;;;25.12;32.09;101300.34;4114500;28;20356;-67
2022/05/18 05:28:34;;;;;;;2.15;0.52;;;;;;;25.01;32.49;101284.75;4162633;28;20037;-68
2022/05/18 05:30:37;;;;;;;1.73;0.50;;;;;;;25.08;32.31;101299.28;4164523;28;20021;-68
2022/05/18 05:32:45;;;;;;;1.27;0.50;;;;;;;25.07;32.52;101295.63;4173714;28;20087;-67
2022/05/18 05:35:21;;;;;;;1.92;0.70;;;;;;;25.04;32.50;101300.97;4179919;28;20115;-67
2022/05/18 05:37:41;;;;;;;0.88;0.40;;;;;;;25.05;32.36;101299.81;4180623;28;20515;-67
2022/05/18 05:40:17;;;;;;;0.75;0.47;;;;;;;25.02;32.37;101300.44;4180482;28;20041;-68
2022/05/18 05:42:22;;;;;;;;;;;;;;;25.03;32.25;101299.31;4179753;28;20041;-66
2022/05/18 05:44:32;;;;;;;0.50;0.50;;;;;;;25.01;32.33;101287.56;4161412;28;19916;-67
2022/05/18 05:46:40;;;;;;;0.98;0.40;;;;;;;25.05;32.29;101300.66;4174921;28;20106;-68
2022/05/18 05:48:59;;;;;;;1.73;0.45;;;;;;;25.03;32.62;101288.94;4167053;28;20459;-67
2022/05/18 05:51:30;;;;;;;1.08;0.35;;;;;;;25.00;32.56;101297.94;4156653;28;20078;-68
2022/05/18 05:53:39;;;;;;;0.95;0.40;;;;;;;25.01;31.92;101294.00;4165565;28;20045;-67
2022/05/18 05:56:00;;;;;;;1.58;0.65;;;;;;;24.91;32.90;101282.09;4175933;28;20103;-68
2022/05/18 05:58:13;;;;;;;2.42;0.40;;;;;;;24.99;32.74;101296.28;4181351;28;20045;-67
2022/05/18 06:00:22;;;;;;;1.75;0.43;;;;;;;24.95;32.76;101300.78;4181160;28;20082;-68
2022/05/18 06:02:40;;;;;;;0.40;0.40;;;;;;;24.98;32.75;101296.59;4180251;28;20037;-67
2022/05/18 06:04:48;;;;;;;0.57;0.40;;;;;;;24.98;32.71;101304.97;4180554;28;20098;-67
2022/05/18 06:06:59;;;;;;;2.22;0.40;;;;;;;24.97;32.73;101303.28;4150978;28;20038;-66
2022/05/18 06:09:01;;;;;;;0.52;0.30;;;;;;;24.87;32.22;101293.06;4175579;28;20037;-67
2022/05/18 06:11:13;;;;;;;0.70;0.30;;;;;;;24.93;31.92;101307.84;4181555;28;20037;-67
2022/05/18 06:13:32;;;;;;;0.40;0.30;;;;;;;24.91;32.42;101307.28;4180566;28;20088;-67
2022/05/18 06:15:35;;;;;;;0.95;0.45;;;;;;;24.94;32.09;101309.50;4178209;28;20049;-66
2022/05/18 06:17:48;;;;;;;0.77;0.50;;;;;;;24.94;31.96;101315.09;4180109;28;20037;-66
2022/05/18 06:20:05;;;;;;;1.23;0.40;;;;;;;24.93;32.27;101308.69;4180929;28;20159;-67
2022/05/18 06:22:15;;;;;;;2.25;0.45;;;;;;;24.83;32.17;101295.66;4180741;28;20087;-66
2022/05/18 06:24:47;;;;;;;2.25;0.38;;;;;;;24.90;31.91;101309.28;4180740;28;20036;-67
2022/05/18 06:26:55;;;;;;;0.77;0.40;;;;;;;24.92;32.21;101306.16;4169882;28;20071;-67
2022/05/18 06:29:22;;;;;;;;;;;;;;;;;;;;;
2022/05/18 06:31:59;;;;;;;0.30;0.30;;;;;;;24.89;32.49;101312.38;4148539;28;20087;-67
2022/05/18 06:34:27;;;;;;;;;;;;;;;;;;;;;
2022/05/18 06:36:42;;;;;;;1.73;0.40;;;;;;;24.83;31.98;101309.66;4180358;28;20049;-67
2022/05/18 06:39:10;;;;;;;0.75;0.30;;;;;;;24.80;31.97;101320.59;4183083;28;20037;-67
2022/05/18 06:44:33;;;;;;;0.93;0.50;;;;;;;24.87;32.25;101323.03;4181490;28;20090;-68
2022/05/18 06:46:39;;;;;;;0.50;0.40;;;;;;;24.89;31.97;101334.78;4132802;28;20075;-67
2022/05/18 06:49:09;;;;;;;2.60;0.80;;;;;;;24.86;32.05;101330.59;4181747;28;20041;-66
2022/05/18 06:54:14;;;;;;;0.20;0.20;;;;;;;24.87;32.12;101342.63;4149890;28;20037;-67
2022/05/18 06:56:20;;;;;;;0.77;0.32;;;;;;;24.85;31.71;101335.34;4165352;28;20033;-67
2022/05/18 06:58:35;;;;;;;0.40;0.40;;;;;;;24.82;32.49;101335.94;4162112;28;20117;-67
2022/05/18 07:00:53;;;;;;;0.60;0.45;;;;;;;24.75;32.34;101332.69;4155792;28;20026;-67
2022/05/18 07:03:04;;;;;;;0.63;0.35;;;;;;;24.83;32.28;101348.84;4164862;28;20037;-68
2022/05/18 07:05:12;;;;;;;0.30;0.30;;;;;;;24.80;32.08;101349.41;4166132;28;20045;-67
2022/05/18 07:07:32;;;;;;;0.20;0.20;;;;;;;24.76;32.35;101342.75;4183106;28;20464;-66
2022/05/18 07:09:40;;;;;;;1.55;0.38;;;;;;;24.69;32.34;101333.84;4160811;28;20149;-68
2022/05/18 07:11:56;;;;;;;0.45;0.30;;;;;;;24.75;32.27;101351.44;4176516;28;20040;-66
2022/05/18 07:14:21;;;;;;;1.85;0.43;;;;;;;24.70;32.42;101348.72;4180484;28;20106;-66
2022/05/18 07:16:28;;;;;;;2.00;0.40;;;;;;;24.79;32.78;101369.31;4163877;28;20033;-66
2022/05/18 07:18:56;;;;;;;0.80;0.45;;;;;;;24.77;32.94;101366.78;4181684;28;20079;-66
2022/05/18 07:21:03;;;;;;;0.47;0.35;;;;;;;24.74;33.02;101356.22;4177369;28;20037;-66
2022/05/18 07:23:36;;;;;;;0.52;0.40;;;;;;;24.77;33.12;101377.16;4170240;28;20041;-67
2022/05/18 07:25:55;;;;;;;0.70;0.38;;;;;;;24.78;33.08;101379.66;4172407;28;20087;-67
2022/05/18 07:28:06;;;;;;;0.50;0.50;;;;;;;24.80;33.42;101380.22;4167369;28;20033;-67
2022/05/18 07:30:20;;;;;;;0.30;0.30;;;;;;;24.80;33.33;101379.38;4176567;28;20091;-66
2022/05/18 07:32:39;;;;;;;0.40;0.40;;;;;;;24.65;33.23;101363.59;4182768;28;20114;-68
2022/05/18 07:37:19;;;;;;;0.50;0.30;;;;;;;24.68;33.15;101376.97;4153146;28;20045;-66
2022/05/18 07:39:30;;;;;;;0.40;0.40;;;;;;;24.75;33.29;101379.44;4170522;28;20041;-68
2022/05/18 07:42:12;;;;;;;1.15;0.40;;;;;;;24.77;33.42;101403.19;4178521;28;20041;-67
2022/05/18 07:44:30;;;;;;;2.33;0.40;;;;;;;24.78;33.51;101404.84;4173439;28;20046;-68
2022/05/18 07:49:07;;;;;;;0.55;0.43;;;;;;;24.79;33.05;101402.91;4133856;28;20041;-68
2022/05/18 07:51:24;;;;;;;;;;;;;;;;;;;;;
2022/05/18 07:53:50;;;;;;;0.38;0.30;;;;;;;24.77;33.29;101394.78;4182629;28;20022;-68
2022/05/18 07:56:05;;;;;;;0.40;0.40;;;;;;;24.71;33.29;101393.19;4181550;28;20041;-68
2022/05/18 07:58:15;;;;;;;0.68;0.45;;;;;;;24.77;32.97;101399.56;4176219;28;20029;-67
2022/05/18 08:00:24;;;;;;;0.47;0.47;;;;;;;24.76;33.24;101398.72;4180228;28;20099;-67
2022/05/18 08:05:04;;;;;;;1.17;0.43;;;;;;;24.76;33.40;101407.13;4149637;28;20038;-67
2022/05/18 08:07:06;;;;;;;0.25;0.25;;;;;;;24.70;33.66;101405.50;4166270;28;20473;-67
2022/05/18 08:09:19;;;;;;;0.63;0.40;;;;;;;24.75;33.37;101425.03;4148073;28;20037;-67
2022/05/18 08:16:34;;;;;;;0.35;0.30;;;;;;;24.75;33.99;101430.66;4178546;28;20712;-66
2022/05/18 08:18:45;;;;;;;1.00;0.40;;;;;;;24.75;33.88;101436.25;4180855;28;20142;-67
2022/05/18 08:20:52;;;;;;;0.50;0.40;;;;;;;24.76;33.79;101434.28;4174295;28;20042;-66
2022/05/18 08:23:02;;;;;;;1.83;0.40;;;;;;;24.76;34.28;101432.31;4169929;28;20045;-68
2022/05/18 08:25:12;;;;;;;0.85;0.50;;;;;;;24.66;34.13;101421.22;4166463;28;20045;-67
2022/05/18 08:27:16;;;;;;;1.45;0.32;;;;;;;24.69;34.29;101415.00;4170173;28;20067;-68
2022/05/18 08:29:42;;;;;;;0.70;0.32;;;;;;;24.71;34.36;101429.56;4177364;28;20127;-67
2022/05/18 08:31:56;;;;;;;2.47;0.40;;;;;;;24.77;33.91;101419.13;4169280;28;20037;-67
2022/05/18 08:34:07;;;;;;;0.65;0.38;;;;;;;24.77;33.46;101424.75;4171650;28;20057;-67
2022/05/18 08:36:09;;;;;;;0.63;0.40;;;;;;;24.64;33.35;101409.47;4167091;28;20049;-66
2022/05/18 08:38:25;;;;;;;;;;;;;;;;;;;;;
2022/05/18 08:41:00;;;;;;;0.50;0.50;;;;;;;24.74;33.72;101428.97;4172975;28;20099;-66
2022/05/18 08:46:01;;;;;;;0.85;0.32;;;;;;;24.75;34.20;101425.03;4168855;28;20429;-67
2022/05/18 08:48:33;;;;;;;0.20;0.20;;;;;;;24.74;34.21;101428.13;4162021;28;20091;-67
2022/05/18 08:50:57;;;;;;;0.30;0.30;;;;;;;24.72;34.19;101420.03;4175305;28;20071;-66
2022/05/18 08:53:24;;;;;;;0.40;0.40;;;;;;;24.73;34.03;101421.69;4177107;28;20045;-67
2022/05/18 08:56:12;;;;;;;0.40;0.40;;;;;;;24.73;34.29;101444.06;4178904;28;20037;-67
2022/05/18 08:58:27;;;;;;;0.73;0.32;;;;;;;24.73;34.25;101444.06;4164812;28;20041;-67
2022/05/18 09:01:34;;;;;;;1.13;0.40;;;;;;;24.72;34.52;101442.41;4167967;28;20049;-65
2022/05/18 09:03:44;;;;;;;0.40;0.40;;;;;;;24.74;34.05;101445.78;4134717;28;20394;-67
2022/05/18 09:06:13;;;;;;;0.30;0.30;;;;;;;24.74;34.50;101447.72;4175337;28;20111;-67
2022/05/18 09:08:38;;;;;;;0.30;0.30;;;;;;;24.71;34.78;101434.31;4154094;28;20045;-67
2022/05/18 09:10:54;;;;;;;0.57;0.38;;;;;;;24.75;34.53;101441.00;4168523;28;20365;-66
2022/05/18 09:13:03;;;;;;;0.82;0.57;;;;;;;24.75;34.82;101441.84;4180418;28;20090;-66
2022/05/18 09:15:16;;;;;;;0.55;0.45;;;;;;;24.74;34.70;101445.78;4176664;28;20033;-66
2022/05/18 09:17:45;;;;;;;1.52;0.30;;;;;;;24.73;34.95;101440.44;4163554;28;20045;-66
2022/05/18 09:20:19;;;;;;;0.40;0.40;;;;;;;24.74;34.67;101444.91;4164587;28;20100;-67
2022/05/18 09:22:59;;;;;;;0.30;0.30;;;;;;;24.71;34.99;101432.34;4164293;28;20084;-66
2022/05/18 09:25:40;;;;;;;1.73;0.30;;;;;;;24.73;34.61;101438.47;4180654;28;20037;-66
2022/05/18 09:28:36;;;;;;;0.50;0.35;;;;;;;24.73;34.72;101437.66;4176361;28;20550;-66
2022/05/18 09:30:58;;;;;;;0.40;0.40;;;;;;;24.76;34.68;101437.91;4097942;28;20114;-68
2022/05/18 09:33:18;;;;;;;1.05;0.43;;;;;;;24.75;34.75;101444.63;4086049;29;20051;-68
2022/05/18 09:35:42;;;;;;;1.15;0.40;;;;;;;24.69;34.38;101437.41;4082539;29;20052;-66
2022/05/18 09:38:06;;;;;;;0.47;0.30;;;;;;;24.73;34.63;101435.69;4083018;28;20076;-66
2022/05/18 09:40:50;;;;;;;1.40;0.30;;;;;;;24.71;34.94;101446.34;4148192;28;20552;-68
2022/05/18 09:43:17;;;;;;;1.75;0.73;;;;;;;24.73;34.68;101455.28;4160237;28;20501;-68
2022/05/18 09:45:28;;;;;;;0.30;0.30;;;;;;;24.71;34.71;101451.13;4151284;28;20046;-65
2022/05/18 09:48:05;;;;;;;0.30;0.30;;;;;;;24.47;34.93;101417.50;4153047;28;20096;-66
2022/05/18 09:50:15;;;;;;;0.85;0.55;;;;;;;24.71;34.81;101468.75;4156394;28;20049;-67
2022/05/18 09:52:28;;;;;;;0.38;0.38;;;;;;;24.72;34.56;101469.56;4148742;28;20112;-66
2022/05/18 09:54:52;;;;;;;0.40;0.38;;;;;;;24.64;34.92;101461.81;4161677;28;20161;-66
2022/05/18 09:57:06;;;;;;;0.50;0.47;;;;;;;24.70;34.54;101472.69;4152649;28;20111;-66
2022/05/18 09:59:14;;;;;;;2.63;0.45;;;;;;;24.70;34.70;101478.28;4162882;28;20087;-66
2022/05/18 10:08:54;;;;;;;0.45;0.40;;;;;;;24.70;34.56;101477.44;4149763;28;20497;-67
2022/05/18 10:11:13;;;;;;;;;;;;;;;24.67;34.83;101484.44;4161180;28;20041;-67
2022/05/18 10:13:19;;;;;;;1.73;0.30;;;;;;;24.73;34.73;101483.25;4154510;28;20343;-67
2022/05/18 10:15:29;;;;;;;0.40;0.40;;;;;;;24.71;34.93;101479.94;4156828;28;20557;-67
2022/05/18 10:17:34;;;;;;;0.73;0.40;;;;;;;24.67;34.83;101467.66;4166915;28;20115;-67
2022/05/18 10:19:45;;;;;;;0.60;0.40;;;;;;;24.69;34.99;101479.38;4164176;28;20570;-68
2022/05/18 10:22:00;;;;;;;0.75;0.47;;;;;;;24.68;35.24;101480.50;4160216;28;20555;-68
2022/05/18 10:24:33;;;;;;;0.40;0.35;;;;;;;24.69;35.15;101486.94;4152063;28;20077;-67
2022/05/18 10:26:54;;;;;;;0.75;0.55;;;;;;;24.69;34.74;101490.56;4160716;28;20111;-68
2022/05/18 10:29:28;;;;;;;0.40;0.40;;;;;;;24.67;34.79;101490.03;4162382;28;20562;-68
2022/05/18 10:32:03;;;;;;;1.65;0.40;;;;;;;24.69;34.45;101507.38;4145491;28;20100;-67
2022/05/18 10:34:44;;;;;;;0.32;0.32;;;;;;;24.67;34.30;101515.22;4170818;28;20118;-68
2022/05/18 10:37:03;;;;;;;0.52;0.47;;;;;;;24.68;34.11;101524.47;4165486;28;20053;-68
2022/05/18 10:39:11;;;;;;;0.30;0.30;;;;;;;24.67;34.71;101523.63;4169903;28;20095;-68
2022/05/18 10:41:27;;;;;;;0.35;0.35;;;;;;;24.68;34.42;101525.28;4157932;28;20045;-66
2022/05/18 10:44:05;;;;;;;2.00;0.35;;;;;;;24.67;34.86;101522.78;4166833;28;20115;-66
2022/05/18 10:46:30;;;;;;;0.68;0.40;;;;;;;24.68;34.41;101514.09;4158808;28;20042;-66
2022/05/18 10:48:49;;;;;;;0.40;0.40;;;;;;;24.69;34.80;101526.94;4168844;28;20411;-66
2022/05/18 10:51:11;;;;;;;0.40;0.40;;;;;;;24.68;34.51;101524.47;4158061;28;20091;-67
2022/05/18 10:53:15;;;;;;;0.80;0.50;;;;;;;24.70;34.49;101531.44;4170897;28;20041;-67
2022/05/18 10:55:23;;;;;;;0.50;0.40;;;;;;;24.70;34.74;101528.66;4180040;28;20040;-65
2022/05/18 10:57:38;;;;;;;0.30;0.30;;;;;;;24.69;34.50;101538.16;4169886;28;20534;-67
2022/05/18 11:00:08;;;;;;;0.77;0.32;;;;;;;24.71;34.24;101535.91;4174611;28;20068;-66
2022/05/18 11:02:33;;;;;;;0.40;0.40;;;;;;;24.68;34.31;101530.88;4169434;28;20461;-66
2022/05/18 11:05:09;;;;;;;4.57;0.55;;;;;;;24.70;34.38;101539.00;4171693;28;20037;-66
2022/05/18 11:07:29;;;;;;;0.55;0.40;;;;;;;24.72;34.42;101534.78;4168720;28;20115;-66
2022/05/18 11:09:34;;;;;;;0.93;0.50;;;;;;;24.65;34.24;101523.09;4168024;28;20041;-67
2022/05/18 11:12:13;;;;;;;1.02;0.40;;;;;;;24.72;34.44;101537.56;4171502;28;20106;-66
2022/05/18 11:14:21;;;;;;;1.02;0.52;;;;;;;24.73;33.92;101536.44;4181996;28;20045;-66
2022/05/18 11:16:39;;;;;;;1.35;0.40;;;;;;;24.72;33.90;101543.16;4152571;28;20038;-66
2022/05/18 11:19:27;;;;;;;0.30;0.30;;;;;;;24.72;34.19;101536.75;4169393;28;20111;-67
2022/05/18 11:22:00;;;;;;;1.23;0.40;;;;;;;24.73;33.89;101550.44;4168698;28;20079;-67
2022/05/18 11:24:17;;;;;;;1.20;0.50;;;;;;;24.74;34.43;101542.88;4167175;28;20073;-67
2022/05/18 11:26:32;;;;;;;0.47;0.40;;;;;;;24.74;33.89;101543.72;4179465;28;20265;-67
2022/05/18 11:28:55;;;;;;;0.38;0.38;;;;;;;24.71;33.94;101535.91;4180079;28;20071;-67
2022/05/18 11:31:50;;;;;;;0.73;0.50;;;;;;;24.72;34.25;101543.16;4179212;28;20496;-67
2022/05/18 11:34:16;;;;;;;0.40;0.40;;;;;;;24.75;34.07;101542.59;4175579;28;20500;-69
2022/05/18 11:36:58;;;;;;;2.85;0.57;;;;;;;24.73;34.15;101544.84;4165564;28;20103;-67
2022/05/18 11:39:09;;;;;;;0.55;0.40;;;;;;;24.75;33.62;101547.38;4167511;28;20095;-67
2022/05/18 11:41:41;;;;;;;1.25;0.50;;;;;;;24.73;33.98;101556.03;4170021;28;20489;-67
2022/05/18 11:44:13;;;;;;;2.90;0.50;;;;;;;24.72;33.87;101554.38;4117314;28;20504;-67
2022/05/18 11:46:26;;;;;;;2.25;0.60;;;;;;;24.74;33.92;101557.72;4164158;28;20111;-67
2022/05/18 11:48:52;;;;;;;1.70;0.60;;;;;;;24.71;33.65;101551.88;4164452;28;20107;-67
2022/05/18 11:51:19;;;;;;;0.73;0.55;;;;;;;24.70;33.59;101556.63;4167182;28;20107;-67
2022/05/18 11:53:48;;;;;;;0.70;0.40;;;;;;;24.69;33.89;101566.13;4175893;28;20037;-67
2022/05/18 11:56:11;;;;;;;1.13;0.45;;;;;;;24.70;33.80;101567.00;4163710;28;20057;-67
2022/05/18 11:59:21;;;;;;;1.58;0.50;;;;;;;24.70;33.90;101572.59;4163599;28;20497;-67